sensor_id;sensor_type;location;lat;lon;timestamp;P1;durP1;ratioP1;P2;durP2;ratioP2
23496;SDS011;11925;48.122;11.560;2023-08-30T00:01:07;8.02;;;6.13;;
23496;SDS011;11925;48.122;11.560;2023-08-30T00:03:36;8.95;;;5.97;;
23496;SDS011;11925;48.122;11.560;2023-08-30T00:06:05;6.53;;;5.30;;
23496;SDS011;11925;48.122;11.560;2023-08-30T00:08:34;6.85;;;5.93;;
23496;SDS011;11925;48.122;11.560;2023-08-30T00:11:02;7.45;;;5.63;;
23496;SDS011;11925;48.122;11.560;2023-08-30T00:13:32;7.65;;;5.90;;
23496;SDS011;11925;48.122;11.560;2023-08-30T00:16:01;7.10;;;5.55;;
23496;SDS011;11925;48.122;11.560;2023-08-30T00:18:30;8.73;;;6.28;;
23496;SDS011;11925;48.122;11.560;2023-08-30T00:20:59;7.20;;;5.55;;
23496;SDS011;11925;48.122;11.560;2023-08-30T00:23:27;7.57;;;5.82;;
23496;SDS011;11925;48.122;11.560;2023-08-30T00:25:55;7.15;;;5.68;;
23496;SDS011;11925;48.122;11.560;2023-08-30T00:28:24;5.85;;;5.20;;
23496;SDS011;11925;48.122;11.560;2023-08-30T00:30:54;7.05;;;5.72;;
23496;SDS011;11925;48.122;11.560;2023-08-30T00:33:23;6.68;;;5.68;;
23496;SDS011;11925;48.122;11.560;2023-08-30T00:35:57;7.28;;;5.95;;
23496;SDS011;11925;48.122;11.560;2023-08-30T00:38:27;8.25;;;5.28;;
23496;SDS011;11925;48.122;11.560;2023-08-30T00:40:55;6.05;;;5.15;;
23496;SDS011;11925;48.122;11.560;2023-08-30T00:43:24;6.13;;;5.45;;
23496;SDS011;11925;48.122;11.560;2023-08-30T00:45:54;6.72;;;5.40;;
23496;SDS011;11925;48.122;11.560;2023-08-30T00:48:23;7.93;;;5.32;;
23496;SDS011;11925;48.122;11.560;2023-08-30T00:50:51;6.53;;;5.32;;
23496;SDS011;11925;48.122;11.560;2023-08-30T00:53:20;6.35;;;5.30;;
23496;SDS011;11925;48.122;11.560;2023-08-30T00:55:49;6.53;;;5.43;;
23496;SDS011;11925;48.122;11.560;2023-08-30T00:58:17;7.07;;;5.40;;
23496;SDS011;11925;48.122;11.560;2023-08-30T01:00:46;6.18;;;5.38;;
23496;SDS011;11925;48.122;11.560;2023-08-30T01:03:16;7.13;;;5.32;;
23496;SDS011;11925;48.122;11.560;2023-08-30T01:05:45;6.00;;;5.25;;
23496;SDS011;11925;48.122;11.560;2023-08-30T01:08:13;5.40;;;4.63;;
23496;SDS011;11925;48.122;11.560;2023-08-30T01:10:44;7.25;;;5.40;;
23496;SDS011;11925;48.122;11.560;2023-08-30T01:13:20;6.03;;;4.97;;
23496;SDS011;11925;48.122;11.560;2023-08-30T01:15:49;7.15;;;4.78;;
23496;SDS011;11925;48.122;11.560;2023-08-30T01:18:22;7.18;;;5.18;;
23496;SDS011;11925;48.122;11.560;2023-08-30T01:20:55;8.32;;;4.85;;
23496;SDS011;11925;48.122;11.560;2023-08-30T01:23:26;6.80;;;5.13;;
23496;SDS011;11925;48.122;11.560;2023-08-30T01:26:06;6.40;;;4.75;;
23496;SDS011;11925;48.122;11.560;2023-08-30T01:28:39;5.55;;;4.72;;
23496;SDS011;11925;48.122;11.560;2023-08-30T01:31:07;6.38;;;5.07;;
23496;SDS011;11925;48.122;11.560;2023-08-30T01:33:38;7.77;;;4.63;;
23496;SDS011;11925;48.122;11.560;2023-08-30T01:36:07;5.75;;;4.40;;
23496;SDS011;11925;48.122;11.560;2023-08-30T01:38:37;5.95;;;4.75;;
23496;SDS011;11925;48.122;11.560;2023-08-30T01:41:06;5.97;;;4.70;;
23496;SDS011;11925;48.122;11.560;2023-08-30T01:43:36;6.07;;;4.68;;
23496;SDS011;11925;48.122;11.560;2023-08-30T01:46:06;5.72;;;4.65;;
23496;SDS011;11925;48.122;11.560;2023-08-30T01:48:35;7.65;;;4.20;;
23496;SDS011;11925;48.122;11.560;2023-08-30T01:51:04;6.60;;;4.60;;
23496;SDS011;11925;48.122;11.560;2023-08-30T01:53:34;5.18;;;4.13;;
23496;SDS011;11925;48.122;11.560;2023-08-30T01:56:03;5.82;;;4.50;;
23496;SDS011;11925;48.122;11.560;2023-08-30T01:58:32;5.45;;;4.15;;
23496;SDS011;11925;48.122;11.560;2023-08-30T02:01:01;5.90;;;4.38;;
23496;SDS011;11925;48.122;11.560;2023-08-30T02:03:31;4.80;;;4.07;;
23496;SDS011;11925;48.122;11.560;2023-08-30T02:08:33;5.18;;;4.22;;
23496;SDS011;11925;48.122;11.560;2023-08-30T02:11:07;6.32;;;4.38;;
23496;SDS011;11925;48.122;11.560;2023-08-30T02:13:40;4.68;;;3.95;;
23496;SDS011;11925;48.122;11.560;2023-08-30T02:16:10;4.38;;;3.67;;
23496;SDS011;11925;48.122;11.560;2023-08-30T02:18:43;4.90;;;4.10;;
23496;SDS011;11925;48.122;11.560;2023-08-30T02:21:12;6.50;;;4.80;;
23496;SDS011;11925;48.122;11.560;2023-08-30T02:23:41;6.07;;;4.30;;
23496;SDS011;11925;48.122;11.560;2023-08-30T02:26:09;5.75;;;4.38;;
23496;SDS011;11925;48.122;11.560;2023-08-30T02:28:37;5.07;;;3.97;;
23496;SDS011;11925;48.122;11.560;2023-08-30T02:31:06;5.30;;;4.03;;
23496;SDS011;11925;48.122;11.560;2023-08-30T02:33:34;6.82;;;4.03;;
23496;SDS011;11925;48.122;11.560;2023-08-30T02:36:05;4.97;;;4.10;;
23496;SDS011;11925;48.122;11.560;2023-08-30T02:38:34;5.30;;;4.13;;
23496;SDS011;11925;48.122;11.560;2023-08-30T02:41:03;3.95;;;3.47;;
23496;SDS011;11925;48.122;11.560;2023-08-30T02:43:31;5.63;;;4.10;;
23496;SDS011;11925;48.122;11.560;2023-08-30T02:45:59;4.15;;;3.45;;
23496;SDS011;11925;48.122;11.560;2023-08-30T02:48:30;5.03;;;3.53;;
23496;SDS011;11925;48.122;11.560;2023-08-30T02:50:58;5.18;;;3.80;;
23496;SDS011;11925;48.122;11.560;2023-08-30T02:53:28;5.30;;;3.80;;
23496;SDS011;11925;48.122;11.560;2023-08-30T02:55:56;4.28;;;3.15;;
23496;SDS011;11925;48.122;11.560;2023-08-30T02:58:25;4.25;;;3.33;;
23496;SDS011;11925;48.122;11.560;2023-08-30T03:00:59;4.53;;;3.25;;
23496;SDS011;11925;48.122;11.560;2023-08-30T03:03:29;3.30;;;2.93;;
23496;SDS011;11925;48.122;11.560;2023-08-30T03:05:57;4.53;;;2.95;;
23496;SDS011;11925;48.122;11.560;2023-08-30T03:08:27;4.30;;;3.47;;
23496;SDS011;11925;48.122;11.560;2023-08-30T03:11:07;4.68;;;3.15;;
23496;SDS011;11925;48.122;11.560;2023-08-30T03:13:39;3.45;;;3.00;;
23496;SDS011;11925;48.122;11.560;2023-08-30T03:16:10;4.10;;;3.20;;
23496;SDS011;11925;48.122;11.560;2023-08-30T03:18:40;4.70;;;3.60;;
23496;SDS011;11925;48.122;11.560;2023-08-30T03:21:09;3.75;;;3.17;;
23496;SDS011;11925;48.122;11.560;2023-08-30T03:23:40;4.75;;;3.28;;
23496;SDS011;11925;48.122;11.560;2023-08-30T03:26:09;4.63;;;3.38;;
23496;SDS011;11925;48.122;11.560;2023-08-30T03:28:38;4.30;;;3.42;;
23496;SDS011;11925;48.122;11.560;2023-08-30T03:31:13;5.50;;;3.55;;
23496;SDS011;11925;48.122;11.560;2023-08-30T03:33:43;4.60;;;3.22;;
23496;SDS011;11925;48.122;11.560;2023-08-30T03:36:13;4.53;;;3.30;;
23496;SDS011;11925;48.122;11.560;2023-08-30T03:38:44;5.45;;;3.03;;
23496;SDS011;11925;48.122;11.560;2023-08-30T03:41:13;3.53;;;2.70;;
23496;SDS011;11925;48.122;11.560;2023-08-30T03:43:43;4.13;;;2.80;;
23496;SDS011;11925;48.122;11.560;2023-08-30T03:46:12;4.50;;;3.22;;
23496;SDS011;11925;48.122;11.560;2023-08-30T03:48:40;3.80;;;3.00;;
23496;SDS011;11925;48.122;11.560;2023-08-30T03:51:10;4.82;;;2.88;;
23496;SDS011;11925;48.122;11.560;2023-08-30T03:53:39;4.72;;;3.42;;
23496;SDS011;11925;48.122;11.560;2023-08-30T03:56:08;4.30;;;3.35;;
23496;SDS011;11925;48.122;11.560;2023-08-30T03:58:37;3.40;;;2.78;;
23496;SDS011;11925;48.122;11.560;2023-08-30T04:01:05;3.53;;;2.90;;
23496;SDS011;11925;48.122;11.560;2023-08-30T04:03:34;5.20;;;3.25;;
23496;SDS011;11925;48.122;11.560;2023-08-30T04:06:03;4.28;;;3.40;;
23496;SDS011;11925;48.122;11.560;2023-08-30T04:08:31;3.75;;;3.03;;
23496;SDS011;11925;48.122;11.560;2023-08-30T04:11:00;3.83;;;3.03;;
23496;SDS011;11925;48.122;11.560;2023-08-30T04:13:30;3.63;;;3.00;;
23496;SDS011;11925;48.122;11.560;2023-08-30T04:15:59;3.45;;;2.78;;
23496;SDS011;11925;48.122;11.560;2023-08-30T04:18:27;5.07;;;3.10;;
23496;SDS011;11925;48.122;11.560;2023-08-30T04:20:56;3.05;;;2.60;;
23496;SDS011;11925;48.122;11.560;2023-08-30T04:23:26;3.33;;;2.83;;
23496;SDS011;11925;48.122;11.560;2023-08-30T04:25:54;2.70;;;2.30;;
23496;SDS011;11925;48.122;11.560;2023-08-30T04:28:23;3.83;;;3.00;;
23496;SDS011;11925;48.122;11.560;2023-08-30T04:30:55;4.55;;;2.90;;
23496;SDS011;11925;48.122;11.560;2023-08-30T04:33:25;4.43;;;2.90;;
23496;SDS011;11925;48.122;11.560;2023-08-30T04:35:54;3.95;;;2.97;;
23496;SDS011;11925;48.122;11.560;2023-08-30T04:38:22;4.18;;;2.80;;
23496;SDS011;11925;48.122;11.560;2023-08-30T04:40:56;4.03;;;2.83;;
23496;SDS011;11925;48.122;11.560;2023-08-30T04:43:25;3.55;;;2.67;;
23496;SDS011;11925;48.122;11.560;2023-08-30T04:45:55;4.03;;;2.80;;
23496;SDS011;11925;48.122;11.560;2023-08-30T04:48:25;4.28;;;2.97;;
23496;SDS011;11925;48.122;11.560;2023-08-30T04:51:00;3.78;;;2.72;;
23496;SDS011;11925;48.122;11.560;2023-08-30T04:53:29;4.63;;;2.70;;
23496;SDS011;11925;48.122;11.560;2023-08-30T04:55:58;3.47;;;2.70;;
23496;SDS011;11925;48.122;11.560;2023-08-30T04:58:28;4.82;;;3.03;;
23496;SDS011;11925;48.122;11.560;2023-08-30T05:00:59;5.00;;;2.88;;
23496;SDS011;11925;48.122;11.560;2023-08-30T05:03:29;3.80;;;3.00;;
23496;SDS011;11925;48.122;11.560;2023-08-30T05:05:59;3.97;;;2.70;;
23496;SDS011;11925;48.122;11.560;2023-08-30T05:08:27;4.40;;;2.95;;
23496;SDS011;11925;48.122;11.560;2023-08-30T05:10:56;3.40;;;3.08;;
23496;SDS011;11925;48.122;11.560;2023-08-30T05:13:24;3.60;;;2.75;;
23496;SDS011;11925;48.122;11.560;2023-08-30T05:15:53;4.68;;;2.97;;
23496;SDS011;11925;48.122;11.560;2023-08-30T05:18:22;5.30;;;3.33;;
23496;SDS011;11925;48.122;11.560;2023-08-30T05:20:51;4.90;;;3.45;;
23496;SDS011;11925;48.122;11.560;2023-08-30T05:23:19;5.38;;;3.63;;
23496;SDS011;11925;48.122;11.560;2023-08-30T05:25:48;5.15;;;3.25;;
23496;SDS011;11925;48.122;11.560;2023-08-30T05:28:17;4.10;;;3.25;;
23496;SDS011;11925;48.122;11.560;2023-08-30T05:30:45;4.63;;;3.05;;
23496;SDS011;11925;48.122;11.560;2023-08-30T05:33:35;5.18;;;3.38;;
23496;SDS011;11925;48.122;11.560;2023-08-30T05:36:17;5.28;;;3.70;;
23496;SDS011;11925;48.122;11.560;2023-08-30T05:39:24;5.78;;;4.00;;
23496;SDS011;11925;48.122;11.560;2023-08-30T05:41:55;6.28;;;3.88;;
23496;SDS011;11925;48.122;11.560;2023-08-30T05:44:23;5.70;;;3.70;;
23496;SDS011;11925;48.122;11.560;2023-08-30T05:46:52;7.53;;;3.95;;
23496;SDS011;11925;48.122;11.560;2023-08-30T05:49:22;5.13;;;3.65;;
23496;SDS011;11925;48.122;11.560;2023-08-30T05:51:51;5.15;;;3.70;;
23496;SDS011;11925;48.122;11.560;2023-08-30T05:54:19;5.43;;;4.07;;
23496;SDS011;11925;48.122;11.560;2023-08-30T05:56:47;7.55;;;4.50;;
23496;SDS011;11925;48.122;11.560;2023-08-30T05:59:16;5.60;;;3.88;;
23496;SDS011;11925;48.122;11.560;2023-08-30T06:01:45;8.90;;;4.20;;
23496;SDS011;11925;48.122;11.560;2023-08-30T06:04:13;7.78;;;4.53;;
23496;SDS011;11925;48.122;11.560;2023-08-30T06:06:43;8.45;;;4.40;;
23496;SDS011;11925;48.122;11.560;2023-08-30T06:09:13;5.50;;;4.43;;
23496;SDS011;11925;48.122;11.560;2023-08-30T06:11:41;8.52;;;3.80;;
23496;SDS011;11925;48.122;11.560;2023-08-30T06:14:09;5.47;;;3.78;;
23496;SDS011;11925;48.122;11.560;2023-08-30T06:16:38;5.95;;;3.70;;
23496;SDS011;11925;48.122;11.560;2023-08-30T06:19:10;7.15;;;4.35;;
23496;SDS011;11925;48.122;11.560;2023-08-30T06:21:38;7.00;;;4.65;;
23496;SDS011;11925;48.122;11.560;2023-08-30T06:24:08;8.73;;;5.28;;
23496;SDS011;11925;48.122;11.560;2023-08-30T06:26:36;7.07;;;4.53;;
23496;SDS011;11925;48.122;11.560;2023-08-30T06:29:05;6.22;;;4.20;;
23496;SDS011;11925;48.122;11.560;2023-08-30T06:31:33;6.80;;;4.80;;
23496;SDS011;11925;48.122;11.560;2023-08-30T06:34:01;7.70;;;4.50;;
23496;SDS011;11925;48.122;11.560;2023-08-30T06:36:30;8.93;;;4.68;;
23496;SDS011;11925;48.122;11.560;2023-08-30T06:38:58;7.65;;;4.50;;
23496;SDS011;11925;48.122;11.560;2023-08-30T06:41:28;6.53;;;4.28;;
23496;SDS011;11925;48.122;11.560;2023-08-30T06:43:56;6.88;;;3.78;;
23496;SDS011;11925;48.122;11.560;2023-08-30T06:46:24;5.65;;;3.60;;
23496;SDS011;11925;48.122;11.560;2023-08-30T06:48:52;5.90;;;3.67;;
23496;SDS011;11925;48.122;11.560;2023-08-30T06:51:21;6.60;;;4.18;;
23496;SDS011;11925;48.122;11.560;2023-08-30T06:53:50;4.97;;;3.90;;
23496;SDS011;11925;48.122;11.560;2023-08-30T06:56:18;4.90;;;3.78;;
23496;SDS011;11925;48.122;11.560;2023-08-30T06:58:48;4.43;;;3.70;;
23496;SDS011;11925;48.122;11.560;2023-08-30T07:01:16;5.03;;;3.60;;
23496;SDS011;11925;48.122;11.560;2023-08-30T07:03:44;3.92;;;3.40;;
23496;SDS011;11925;48.122;11.560;2023-08-30T07:06:13;4.57;;;3.65;;
23496;SDS011;11925;48.122;11.560;2023-08-30T07:08:41;5.07;;;3.28;;
23496;SDS011;11925;48.122;11.560;2023-08-30T07:11:09;4.25;;;3.42;;
23496;SDS011;11925;48.122;11.560;2023-08-30T07:13:59;7.00;;;3.70;;
23496;SDS011;11925;48.122;11.560;2023-08-30T07:16:27;5.40;;;3.78;;
23496;SDS011;11925;48.122;11.560;2023-08-30T07:18:55;4.38;;;3.40;;
23496;SDS011;11925;48.122;11.560;2023-08-30T07:21:24;5.55;;;4.15;;
23496;SDS011;11925;48.122;11.560;2023-08-30T07:23:53;5.60;;;3.80;;
23496;SDS011;11925;48.122;11.560;2023-08-30T07:26:21;5.15;;;3.70;;
23496;SDS011;11925;48.122;11.560;2023-08-30T07:28:50;4.85;;;3.53;;
23496;SDS011;11925;48.122;11.560;2023-08-30T07:31:20;4.40;;;3.40;;
23496;SDS011;11925;48.122;11.560;2023-08-30T07:33:48;4.30;;;3.65;;
23496;SDS011;11925;48.122;11.560;2023-08-30T07:36:16;5.97;;;3.78;;
23496;SDS011;11925;48.122;11.560;2023-08-30T07:38:45;5.25;;;3.90;;
23496;SDS011;11925;48.122;11.560;2023-08-30T07:41:14;4.60;;;4.07;;
23496;SDS011;11925;48.122;11.560;2023-08-30T07:43:43;4.88;;;3.67;;
23496;SDS011;11925;48.122;11.560;2023-08-30T07:46:11;4.35;;;3.60;;
23496;SDS011;11925;48.122;11.560;2023-08-30T07:48:41;5.47;;;4.20;;
23496;SDS011;11925;48.122;11.560;2023-08-30T07:51:09;4.78;;;3.50;;
23496;SDS011;11925;48.122;11.560;2023-08-30T07:53:37;4.95;;;4.07;;
23496;SDS011;11925;48.122;11.560;2023-08-30T07:56:05;6.80;;;4.72;;
23496;SDS011;11925;48.122;11.560;2023-08-30T07:58:34;6.35;;;4.57;;
23496;SDS011;11925;48.122;11.560;2023-08-30T08:01:03;4.97;;;4.20;;
23496;SDS011;11925;48.122;11.560;2023-08-30T08:03:31;6.07;;;4.38;;
23496;SDS011;11925;48.122;11.560;2023-08-30T08:06:01;6.47;;;4.78;;
23496;SDS011;11925;48.122;11.560;2023-08-30T08:08:30;6.22;;;4.97;;
23496;SDS011;11925;48.122;11.560;2023-08-30T08:10:59;6.15;;;4.30;;
23496;SDS011;11925;48.122;11.560;2023-08-30T08:13:27;6.32;;;4.65;;
23496;SDS011;11925;48.122;11.560;2023-08-30T08:15:56;5.40;;;4.85;;
23496;SDS011;11925;48.122;11.560;2023-08-30T08:18:25;7.40;;;5.15;;
23496;SDS011;11925;48.122;11.560;2023-08-30T08:20:53;6.72;;;5.53;;
23496;SDS011;11925;48.122;11.560;2023-08-30T08:23:23;6.50;;;5.68;;
23496;SDS011;11925;48.122;11.560;2023-08-30T08:25:56;7.82;;;6.10;;
23496;SDS011;11925;48.122;11.560;2023-08-30T08:28:25;8.63;;;5.82;;
23496;SDS011;11925;48.122;11.560;2023-08-30T08:30:54;6.43;;;5.32;;
23496;SDS011;11925;48.122;11.560;2023-08-30T08:33:22;7.00;;;5.63;;
23496;SDS011;11925;48.122;11.560;2023-08-30T08:35:50;8.73;;;6.50;;
23496;SDS011;11925;48.122;11.560;2023-08-30T08:38:19;7.70;;;6.50;;
23496;SDS011;11925;48.122;11.560;2023-08-30T08:40:48;7.78;;;6.28;;
23496;SDS011;11925;48.122;11.560;2023-08-30T08:43:19;8.23;;;6.38;;
23496;SDS011;11925;48.122;11.560;2023-08-30T08:45:48;8.15;;;6.10;;
23496;SDS011;11925;48.122;11.560;2023-08-30T08:48:17;9.57;;;6.40;;
23496;SDS011;11925;48.122;11.560;2023-08-30T08:50:45;9.63;;;6.05;;
23496;SDS011;11925;48.122;11.560;2023-08-30T08:53:14;9.38;;;5.78;;
23496;SDS011;11925;48.122;11.560;2023-08-30T08:55:42;8.68;;;6.25;;
23496;SDS011;11925;48.122;11.560;2023-08-30T08:58:14;9.32;;;6.10;;
23496;SDS011;11925;48.122;11.560;2023-08-30T09:00:43;6.90;;;5.90;;
23496;SDS011;11925;48.122;11.560;2023-08-30T09:03:12;7.22;;;5.40;;
23496;SDS011;11925;48.122;11.560;2023-08-30T09:05:42;7.47;;;5.55;;
23496;SDS011;11925;48.122;11.560;2023-08-30T09:08:10;7.13;;;5.75;;
23496;SDS011;11925;48.122;11.560;2023-08-30T09:10:39;6.82;;;5.90;;
23496;SDS011;11925;48.122;11.560;2023-08-30T09:13:08;7.72;;;5.65;;
23496;SDS011;11925;48.122;11.560;2023-08-30T09:15:38;6.60;;;5.75;;
23496;SDS011;11925;48.122;11.560;2023-08-30T09:18:14;6.20;;;5.45;;
23496;SDS011;11925;48.122;11.560;2023-08-30T09:20:42;6.60;;;5.30;;
23496;SDS011;11925;48.122;11.560;2023-08-30T09:23:17;7.63;;;5.20;;
23496;SDS011;11925;48.122;11.560;2023-08-30T09:25:47;8.88;;;6.53;;
23496;SDS011;11925;48.122;11.560;2023-08-30T09:28:21;13.95;;;9.35;;
23496;SDS011;11925;48.122;11.560;2023-08-30T09:30:51;9.27;;;7.65;;
23496;SDS011;11925;48.122;11.560;2023-08-30T09:33:20;9.13;;;6.90;;
23496;SDS011;11925;48.122;11.560;2023-08-30T09:35:49;8.40;;;6.72;;
23496;SDS011;11925;48.122;11.560;2023-08-30T09:38:17;7.97;;;6.55;;
23496;SDS011;11925;48.122;11.560;2023-08-30T09:40:46;11.32;;;6.05;;
23496;SDS011;11925;48.122;11.560;2023-08-30T09:43:17;7.63;;;5.65;;
23496;SDS011;11925;48.122;11.560;2023-08-30T09:45:48;7.03;;;5.38;;
23496;SDS011;11925;48.122;11.560;2023-08-30T09:48:21;7.10;;;5.25;;
23496;SDS011;11925;48.122;11.560;2023-08-30T09:50:52;7.68;;;5.00;;
23496;SDS011;11925;48.122;11.560;2023-08-30T09:53:21;5.90;;;5.00;;
23496;SDS011;11925;48.122;11.560;2023-08-30T09:55:54;5.60;;;4.80;;
23496;SDS011;11925;48.122;11.560;2023-08-30T09:58:24;5.25;;;4.00;;
23496;SDS011;11925;48.122;11.560;2023-08-30T10:00:56;6.30;;;3.75;;
23496;SDS011;11925;48.122;11.560;2023-08-30T10:03:30;4.50;;;3.67;;
23496;SDS011;11925;48.122;11.560;2023-08-30T10:06:01;4.35;;;3.50;;
23496;SDS011;11925;48.122;11.560;2023-08-30T10:08:32;5.00;;;3.43;;
23496;SDS011;11925;48.122;11.560;2023-08-30T10:11:03;3.88;;;3.40;;
23496;SDS011;11925;48.122;11.560;2023-08-30T10:13:33;3.80;;;3.40;;
23496;SDS011;11925;48.122;11.560;2023-08-30T10:16:06;5.18;;;3.28;;
23496;SDS011;11925;48.122;11.560;2023-08-30T10:18:38;4.17;;;3.47;;
23496;SDS011;11925;48.122;11.560;2023-08-30T10:21:28;4.87;;;3.03;;
23496;SDS011;11925;48.122;11.560;2023-08-30T10:23:57;5.53;;;2.63;;
23496;SDS011;11925;48.122;11.560;2023-08-30T10:26:29;3.88;;;2.55;;
23496;SDS011;11925;48.122;11.560;2023-08-30T10:28:58;2.97;;;2.58;;
23496;SDS011;11925;48.122;11.560;2023-08-30T10:31:29;4.32;;;2.67;;
23496;SDS011;11925;48.122;11.560;2023-08-30T10:33:59;3.20;;;2.65;;
23496;SDS011;11925;48.122;11.560;2023-08-30T10:36:27;2.90;;;2.63;;
23496;SDS011;11925;48.122;11.560;2023-08-30T10:38:56;6.97;;;2.92;;
23496;SDS011;11925;48.122;11.560;2023-08-30T10:41:25;3.78;;;2.47;;
23496;SDS011;11925;48.122;11.560;2023-08-30T10:43:55;3.80;;;2.50;;
23496;SDS011;11925;48.122;11.560;2023-08-30T10:46:31;3.42;;;2.45;;
23496;SDS011;11925;48.122;11.560;2023-08-30T10:49:12;3.88;;;1.92;;
23496;SDS011;11925;48.122;11.560;2023-08-30T10:51:41;3.10;;;2.15;;
23496;SDS011;11925;48.122;11.560;2023-08-30T10:54:11;2.67;;;2.35;;
23496;SDS011;11925;48.122;11.560;2023-08-30T10:56:45;3.08;;;2.17;;
23496;SDS011;11925;48.122;11.560;2023-08-30T10:59:15;3.72;;;2.20;;
23496;SDS011;11925;48.122;11.560;2023-08-30T11:01:45;3.47;;;1.88;;
23496;SDS011;11925;48.122;11.560;2023-08-30T11:04:15;4.05;;;1.98;;
23496;SDS011;11925;48.122;11.560;2023-08-30T11:06:44;4.43;;;2.25;;
23496;SDS011;11925;48.122;11.560;2023-08-30T11:09:13;2.88;;;2.10;;
23496;SDS011;11925;48.122;11.560;2023-08-30T11:11:44;3.88;;;2.03;;
23496;SDS011;11925;48.122;11.560;2023-08-30T11:14:13;3.00;;;2.15;;
23496;SDS011;11925;48.122;11.560;2023-08-30T11:16:42;3.28;;;2.17;;
23496;SDS011;11925;48.122;11.560;2023-08-30T11:19:10;3.33;;;2.30;;
23496;SDS011;11925;48.122;11.560;2023-08-30T11:21:42;4.60;;;2.30;;
23496;SDS011;11925;48.122;11.560;2023-08-30T11:24:12;3.53;;;1.88;;
23496;SDS011;11925;48.122;11.560;2023-08-30T11:26:40;4.03;;;1.98;;
23496;SDS011;11925;48.122;11.560;2023-08-30T11:29:09;3.97;;;2.00;;
23496;SDS011;11925;48.122;11.560;2023-08-30T11:31:37;3.38;;;2.05;;
23496;SDS011;11925;48.122;11.560;2023-08-30T11:34:06;3.53;;;2.00;;
23496;SDS011;11925;48.122;11.560;2023-08-30T11:36:35;2.40;;;1.83;;
23496;SDS011;11925;48.122;11.560;2023-08-30T11:39:06;3.78;;;1.90;;
23496;SDS011;11925;48.122;11.560;2023-08-30T11:41:35;3.92;;;2.50;;
23496;SDS011;11925;48.122;11.560;2023-08-30T11:44:06;5.13;;;2.60;;
23496;SDS011;11925;48.122;11.560;2023-08-30T11:46:35;4.15;;;2.25;;
23496;SDS011;11925;48.122;11.560;2023-08-30T11:49:04;2.70;;;2.08;;
23496;SDS011;11925;48.122;11.560;2023-08-30T11:51:33;2.88;;;1.98;;
23496;SDS011;11925;48.122;11.560;2023-08-30T11:54:01;6.28;;;2.33;;
23496;SDS011;11925;48.122;11.560;2023-08-30T11:56:32;3.08;;;2.55;;
23496;SDS011;11925;48.122;11.560;2023-08-30T11:59:01;3.88;;;2.72;;
23496;SDS011;11925;48.122;11.560;2023-08-30T12:01:31;3.28;;;2.20;;
23496;SDS011;11925;48.122;11.560;2023-08-30T12:04:08;2.92;;;2.45;;
23496;SDS011;11925;48.122;11.560;2023-08-30T12:06:37;5.10;;;2.63;;
23496;SDS011;11925;48.122;11.560;2023-08-30T12:09:05;2.67;;;2.25;;
23496;SDS011;11925;48.122;11.560;2023-08-30T12:11:41;3.53;;;2.20;;
23496;SDS011;11925;48.122;11.560;2023-08-30T12:14:10;3.10;;;2.00;;
23496;SDS011;11925;48.122;11.560;2023-08-30T12:16:39;4.20;;;2.42;;
23496;SDS011;11925;48.122;11.560;2023-08-30T12:19:08;3.05;;;2.03;;
23496;SDS011;11925;48.122;11.560;2023-08-30T12:21:41;5.30;;;2.00;;
23496;SDS011;11925;48.122;11.560;2023-08-30T12:24:10;2.53;;;2.10;;
23496;SDS011;11925;48.122;11.560;2023-08-30T12:26:38;2.72;;;2.13;;
23496;SDS011;11925;48.122;11.560;2023-08-30T12:29:08;4.32;;;1.75;;
23496;SDS011;11925;48.122;11.560;2023-08-30T12:31:36;3.83;;;2.03;;
23496;SDS011;11925;48.122;11.560;2023-08-30T12:34:05;2.75;;;2.05;;
23496;SDS011;11925;48.122;11.560;2023-08-30T12:36:33;3.67;;;2.05;;
23496;SDS011;11925;48.122;11.560;2023-08-30T12:39:01;3.97;;;2.13;;
23496;SDS011;11925;48.122;11.560;2023-08-30T12:41:30;3.63;;;1.98;;
23496;SDS011;11925;48.122;11.560;2023-08-30T12:44:01;3.85;;;2.05;;
23496;SDS011;11925;48.122;11.560;2023-08-30T12:46:30;4.40;;;2.05;;
23496;SDS011;11925;48.122;11.560;2023-08-30T12:49:01;2.90;;;2.13;;
23496;SDS011;11925;48.122;11.560;2023-08-30T12:51:30;2.63;;;1.67;;
23496;SDS011;11925;48.122;11.560;2023-08-30T12:53:58;2.47;;;2.00;;
23496;SDS011;11925;48.122;11.560;2023-08-30T12:56:26;3.00;;;2.08;;
23496;SDS011;11925;48.122;11.560;2023-08-30T12:58:55;3.35;;;2.20;;
23496;SDS011;11925;48.122;11.560;2023-08-30T13:01:25;3.80;;;2.70;;
23496;SDS011;11925;48.122;11.560;2023-08-30T13:03:53;4.68;;;2.72;;
23496;SDS011;11925;48.122;11.560;2023-08-30T13:06:22;4.47;;;3.08;;
23496;SDS011;11925;48.122;11.560;2023-08-30T13:08:51;3.88;;;2.47;;
23496;SDS011;11925;48.122;11.560;2023-08-30T13:11:19;4.32;;;2.05;;
23496;SDS011;11925;48.122;11.560;2023-08-30T13:13:48;3.58;;;2.40;;
23496;SDS011;11925;48.122;11.560;2023-08-30T13:16:17;4.93;;;2.08;;
23496;SDS011;11925;48.122;11.560;2023-08-30T13:18:47;3.63;;;2.38;;
23496;SDS011;11925;48.122;11.560;2023-08-30T13:21:15;4.00;;;2.17;;
23496;SDS011;11925;48.122;11.560;2023-08-30T13:23:53;3.85;;;1.90;;
23496;SDS011;11925;48.122;11.560;2023-08-30T13:26:21;4.03;;;2.10;;
23496;SDS011;11925;48.122;11.560;2023-08-30T13:28:50;4.18;;;2.30;;
23496;SDS011;11925;48.122;11.560;2023-08-30T13:31:18;3.70;;;2.17;;
23496;SDS011;11925;48.122;11.560;2023-08-30T13:33:48;2.25;;;1.88;;
23496;SDS011;11925;48.122;11.560;2023-08-30T13:36:17;2.08;;;1.65;;
23496;SDS011;11925;48.122;11.560;2023-08-30T13:38:46;4.78;;;1.70;;
23496;SDS011;11925;48.122;11.560;2023-08-30T13:41:14;3.08;;;1.92;;
23496;SDS011;11925;48.122;11.560;2023-08-30T13:43:43;2.70;;;1.50;;
23496;SDS011;11925;48.122;11.560;2023-08-30T13:46:11;6.13;;;1.80;;
23496;SDS011;11925;48.122;11.560;2023-08-30T13:48:40;3.67;;;1.70;;
23496;SDS011;11925;48.122;11.560;2023-08-30T13:51:10;2.28;;;1.67;;
23496;SDS011;11925;48.122;11.560;2023-08-30T13:53:39;4.88;;;2.35;;
23496;SDS011;11925;48.122;11.560;2023-08-30T13:56:07;4.90;;;2.50;;
23496;SDS011;11925;48.122;11.560;2023-08-30T13:58:36;3.63;;;2.20;;
23496;SDS011;11925;48.122;11.560;2023-08-30T14:01:05;4.80;;;2.63;;
23496;SDS011;11925;48.122;11.560;2023-08-30T14:03:33;4.60;;;2.63;;
23496;SDS011;11925;48.122;11.560;2023-08-30T14:06:02;3.70;;;2.55;;
23496;SDS011;11925;48.122;11.560;2023-08-30T14:08:32;5.50;;;2.42;;
23496;SDS011;11925;48.122;11.560;2023-08-30T14:11:00;2.85;;;2.35;;
23496;SDS011;11925;48.122;11.560;2023-08-30T14:13:30;4.32;;;2.40;;
23496;SDS011;11925;48.122;11.560;2023-08-30T14:15:59;6.88;;;2.78;;
23496;SDS011;11925;48.122;11.560;2023-08-30T14:18:29;3.50;;;2.47;;
23496;SDS011;11925;48.122;11.560;2023-08-30T14:20:58;3.85;;;2.67;;
23496;SDS011;11925;48.122;11.560;2023-08-30T14:23:27;5.10;;;3.40;;
23496;SDS011;11925;48.122;11.560;2023-08-30T14:25:58;4.93;;;3.05;;
23496;SDS011;11925;48.122;11.560;2023-08-30T14:28:27;3.97;;;3.20;;
23496;SDS011;11925;48.122;11.560;2023-08-30T14:30:56;6.88;;;3.13;;
23496;SDS011;11925;48.122;11.560;2023-08-30T14:33:24;4.93;;;3.38;;
23496;SDS011;11925;48.122;11.560;2023-08-30T14:35:53;5.15;;;3.60;;
23496;SDS011;11925;48.122;11.560;2023-08-30T14:38:21;5.05;;;3.33;;
23496;SDS011;11925;48.122;11.560;2023-08-30T14:40:54;4.07;;;3.22;;
23496;SDS011;11925;48.122;11.560;2023-08-30T14:43:24;4.15;;;3.08;;
23496;SDS011;11925;48.122;11.560;2023-08-30T14:45:58;4.57;;;3.45;;
23496;SDS011;11925;48.122;11.560;2023-08-30T14:48:36;4.22;;;3.33;;
23496;SDS011;11925;48.122;11.560;2023-08-30T14:51:05;4.20;;;3.47;;